sensor_id;sensor_type;location;lat;lon;timestamp;pressure;altitude;pressure_sealevel;temperature;humidity
31346;BME280;21711;49.708;18.568;2023-05-11T00:01:17;97445.00;;;11.12;79.80
31346;BME280;21711;49.708;18.568;2023-05-11T00:03:45;97442.09;;;11.13;80.49
31346;BME280;21711;49.708;18.568;2023-05-11T00:06:12;97447.16;;;10.99;79.69
31346;BME280;21711;49.708;18.568;2023-05-11T00:08:40;97448.22;;;10.98;80.89
31346;BME280;21711;49.708;18.568;2023-05-11T00:11:08;97435.50;;;11.05;79.55
31346;BME280;21711;49.708;18.568;2023-05-11T00:13:35;97441.84;;;10.99;81.42
31346;BME280;21711;49.708;18.568;2023-05-11T00:16:02;97440.03;;;10.95;81.22
31346;BME280;21711;49.708;18.568;2023-05-11T00:18:30;97435.00;;;10.98;81.27
31346;BME280;21711;49.708;18.568;2023-05-11T00:20:58;97431.56;;;10.92;80.13
31346;BME280;21711;49.708;18.568;2023-05-11T00:23:25;97430.78;;;10.92;83.36
31346;BME280;21711;49.708;18.568;2023-05-11T00:25:52;97433.19;;;10.83;80.97
31346;BME280;21711;49.708;18.568;2023-05-11T00:28:20;97428.16;;;10.87;81.68
31346;BME280;21711;49.708;18.568;2023-05-11T00:30:48;97435.34;;;10.71;82.54
31346;BME280;21711;49.708;18.568;2023-05-11T00:33:17;97425.06;;;10.59;83.26
31346;BME280;21711;49.708;18.568;2023-05-11T00:35:44;97426.91;;;10.58;84.12
31346;BME280;21711;49.708;18.568;2023-05-11T00:38:11;97426.41;;;10.51;83.68
31346;BME280;21711;49.708;18.568;2023-05-11T00:40:39;97419.78;;;10.38;85.21
31346;BME280;21711;49.708;18.568;2023-05-11T00:43:06;97418.19;;;10.37;87.20
31346;BME280;21711;49.708;18.568;2023-05-11T00:45:34;97419.81;;;10.48;85.16
31346;BME280;21711;49.708;18.568;2023-05-11T00:48:02;97422.97;;;10.35;85.70
31346;BME280;21711;49.708;18.568;2023-05-11T00:50:30;97428.00;;;10.31;86.32
31346;BME280;21711;49.708;18.568;2023-05-11T00:52:58;97429.56;;;10.17;89.03
31346;BME280;21711;49.708;18.568;2023-05-11T00:55:27;97428.56;;;10.12;88.11
31346;BME280;21711;49.708;18.568;2023-05-11T00:57:54;97425.09;;;10.22;87.58
31346;BME280;21711;49.708;18.568;2023-05-11T01:00:22;97426.41;;;10.25;84.34
31346;BME280;21711;49.708;18.568;2023-05-11T01:02:50;97419.28;;;10.20;87.22
31346;BME280;21711;49.708;18.568;2023-05-11T01:05:18;97424.56;;;10.05;88.48
31346;BME280;21711;49.708;18.568;2023-05-11T01:08:10;97416.66;;;9.94;88.82
31346;BME280;21711;49.708;18.568;2023-05-11T01:10:54;97420.59;;;9.86;89.15
31346;BME280;21711;49.708;18.568;2023-05-11T01:16:20;97424.03;;;9.71;89.31
31346;BME280;21711;49.708;18.568;2023-05-11T01:19:01;97420.34;;;9.72;89.21
31346;BME280;21711;49.708;18.568;2023-05-11T01:21:33;97413.44;;;9.61;91.31
31346;BME280;21711;49.708;18.568;2023-05-11T01:29:57;97419.28;;;9.58;91.89
31346;BME280;21711;49.708;18.568;2023-05-11T01:32:31;97417.16;;;9.65;91.66
31346;BME280;21711;49.708;18.568;2023-05-11T01:35:11;97420.88;;;9.69;91.42
31346;BME280;21711;49.708;18.568;2023-05-11T01:37:44;97422.69;;;9.74;89.54
31346;BME280;21711;49.708;18.568;2023-05-11T01:40:15;97413.47;;;9.71;89.55
31346;BME280;21711;49.708;18.568;2023-05-11T01:43:05;97420.31;;;9.57;91.79
31346;BME280;21711;49.708;18.568;2023-05-11T01:45:38;97422.69;;;9.53;93.41
31346;BME280;21711;49.708;18.568;2023-05-11T01:48:11;97418.97;;;9.54;90.12
31346;BME280;21711;49.708;18.568;2023-05-11T01:50:41;97423.22;;;9.55;90.59
31346;BME280;21711;49.708;18.568;2023-05-11T01:53:11;97423.22;;;9.55;90.00
31346;BME280;21711;49.708;18.568;2023-05-11T01:55:40;97430.59;;;9.53;91.07
31346;BME280;21711;49.708;18.568;2023-05-11T01:58:09;97424.50;;;9.47;92.14
31346;BME280;21711;49.708;18.568;2023-05-11T02:00:39;97424.50;;;9.37;92.50
31346;BME280;21711;49.708;18.568;2023-05-11T02:03:10;97423.66;;;9.26;94.89
31346;BME280;21711;49.708;18.568;2023-05-11T02:05:39;97422.41;;;9.34;92.45
31346;BME280;21711;49.708;18.568;2023-05-11T02:08:09;97421.84;;;9.37;91.99
31346;BME280;21711;49.708;18.568;2023-05-11T02:10:40;97429.00;;;9.37;94.17
31346;BME280;21711;49.708;18.568;2023-05-11T02:13:08;97430.56;;;9.38;92.66
31346;BME280;21711;49.708;18.568;2023-05-11T02:15:40;97424.00;;;9.40;92.56
31346;BME280;21711;49.708;18.568;2023-05-11T02:18:13;97425.81;;;9.34;92.76
31346;BME280;21711;49.708;18.568;2023-05-11T02:20:44;97421.81;;;9.21;93.79
31346;BME280;21711;49.708;18.568;2023-05-11T02:23:12;97426.34;;;9.31;92.41
31346;BME280;21711;49.708;18.568;2023-05-11T02:25:41;97421.31;;;9.30;91.63
31346;BME280;21711;49.708;18.568;2023-05-11T02:28:09;97418.94;;;9.28;90.87
31346;BME280;21711;49.708;18.568;2023-05-11T02:30:47;97417.59;;;9.20;91.66
31346;BME280;21711;49.708;18.568;2023-05-11T02:33:35;97421.28;;;9.19;90.91
31346;BME280;21711;49.708;18.568;2023-05-11T02:36:05;97420.75;;;9.12;90.95
31346;BME280;21711;49.708;18.568;2023-05-11T02:38:35;97423.13;;;9.14;93.82
31346;BME280;21711;49.708;18.568;2023-05-11T02:41:12;97419.19;;;9.16;92.38
31346;BME280;21711;49.708;18.568;2023-05-11T02:43:45;97420.22;;;9.15;91.67
31346;BME280;21711;49.708;18.568;2023-05-11T02:46:18;97409.41;;;9.17;91.92
31346;BME280;21711;49.708;18.568;2023-05-11T02:48:51;97417.59;;;9.15;95.31
31346;BME280;21711;49.708;18.568;2023-05-11T02:51:27;97414.72;;;9.22;94.12
31346;BME280;21711;49.708;18.568;2023-05-11T02:53:58;97413.34;;;9.19;91.02
31346;BME280;21711;49.708;18.568;2023-05-11T02:56:29;97409.69;;;9.20;89.98
31346;BME280;21711;49.708;18.568;2023-05-11T02:58:57;97414.97;;;9.20;90.74
31346;BME280;21711;49.708;18.568;2023-05-11T03:01:26;97415.22;;;9.19;91.14
31346;BME280;21711;49.708;18.568;2023-05-11T03:03:57;97417.56;;;9.10;93.08
31346;BME280;21711;49.708;18.568;2023-05-11T03:06:26;97413.31;;;9.04;92.93
31346;BME280;21711;49.708;18.568;2023-05-11T03:08:53;97409.34;;;9.01;93.12
31346;BME280;21711;49.708;18.568;2023-05-11T03:11:22;97411.44;;;8.89;94.00
31346;BME280;21711;49.708;18.568;2023-05-11T03:13:49;97416.91;;;8.77;94.99
31346;BME280;21711;49.708;18.568;2023-05-11T03:16:18;97415.53;;;8.69;94.89
31346;BME280;21711;49.708;18.568;2023-05-11T03:18:49;97415.00;;;8.67;95.18
31346;BME280;21711;49.708;18.568;2023-05-11T03:21:18;97417.41;;;8.68;96.30
31346;BME280;21711;49.708;18.568;2023-05-11T03:23:48;97421.13;;;8.73;93.35
31346;BME280;21711;49.708;18.568;2023-05-11T03:26:20;97424.44;;;8.58;95.89
31346;BME280;21711;49.708;18.568;2023-05-11T03:28:50;97423.19;;;8.71;93.91
31346;BME280;21711;49.708;18.568;2023-05-11T03:31:18;97419.22;;;8.68;93.61
31346;BME280;21711;49.708;18.568;2023-05-11T03:33:45;97411.66;;;8.82;92.66
31346;BME280;21711;49.708;18.568;2023-05-11T03:36:13;97415.94;;;8.99;93.52
31346;BME280;21711;49.708;18.568;2023-05-11T03:38:46;97409.34;;;8.96;93.51
31346;BME280;21711;49.708;18.568;2023-05-11T03:41:17;97415.94;;;9.04;94.04
31346;BME280;21711;49.708;18.568;2023-05-11T03:43:51;97414.88;;;9.00;93.79
31346;BME280;21711;49.708;18.568;2023-05-11T03:46:22;97423.13;;;9.14;93.91
31346;BME280;21711;49.708;18.568;2023-05-11T03:48:51;97426.84;;;9.23;95.34
31346;BME280;21711;49.708;18.568;2023-05-11T03:51:22;97419.72;;;9.24;93.36
31346;BME280;21711;49.708;18.568;2023-05-11T03:53:50;97429.25;;;9.40;92.63
31346;BME280;21711;49.708;18.568;2023-05-11T03:56:19;97435.06;;;9.47;92.40
31346;BME280;21711;49.708;18.568;2023-05-11T03:58:47;97427.97;;;9.53;91.34
31346;BME280;21711;49.708;18.568;2023-05-11T04:01:15;97429.59;;;9.65;91.11
31346;BME280;21711;49.708;18.568;2023-05-11T04:03:48;97429.59;;;9.80;90.74
31346;BME280;21711;49.708;18.568;2023-05-11T04:06:17;97433.56;;;9.83;89.22
31346;BME280;21711;49.708;18.568;2023-05-11T04:08:49;97435.13;;;9.94;85.48
31346;BME280;21711;49.708;18.568;2023-05-11T04:11:16;97436.75;;;10.00;82.82
31346;BME280;21711;49.708;18.568;2023-05-11T04:13:44;97433.56;;;9.98;86.29
31346;BME280;21711;49.708;18.568;2023-05-11T04:16:11;97442.78;;;10.17;87.20
31346;BME280;21711;49.708;18.568;2023-05-11T04:18:38;97440.94;;;10.17;87.16
31346;BME280;21711;49.708;18.568;2023-05-11T04:21:06;97441.22;;;10.16;85.60
31346;BME280;21711;49.708;18.568;2023-05-11T04:23:33;97437.22;;;10.29;82.51
31346;BME280;21711;49.708;18.568;2023-05-11T04:26:00;97442.25;;;10.61;84.23
31346;BME280;21711;49.708;18.568;2023-05-11T04:28:28;97446.44;;;10.73;85.25
31346;BME280;21711;49.708;18.568;2023-05-11T04:30:56;97442.50;;;10.60;84.98
31346;BME280;21711;49.708;18.568;2023-05-11T04:33:24;97442.47;;;10.70;86.02
31346;BME280;21711;49.708;18.568;2023-05-11T04:35:54;97440.25;;;11.09;83.33
31346;BME280;21711;49.708;18.568;2023-05-11T04:38:23;97441.38;;;11.48;79.79
31346;BME280;21711;49.708;18.568;2023-05-11T04:40:52;97446.66;;;12.28;76.32
31346;BME280;21711;49.708;18.568;2023-05-11T04:43:19;97450.94;;;12.53;73.47
31346;BME280;21711;49.708;18.568;2023-05-11T04:45:48;97452.97;;;13.73;70.15
31346;BME280;21711;49.708;18.568;2023-05-11T04:48:21;97456.09;;;14.14;66.81
31346;BME280;21711;49.708;18.568;2023-05-11T04:50:48;97453.28;;;14.99;62.60
31346;BME280;21711;49.708;18.568;2023-05-11T04:53:17;97454.56;;;14.88;60.99
31346;BME280;21711;49.708;18.568;2023-05-11T04:55:46;97455.28;;;14.46;63.60
31346;BME280;21711;49.708;18.568;2023-05-11T04:58:13;97454.13;;;13.67;66.17
31346;BME280;21711;49.708;18.568;2023-05-11T05:00:41;97451.06;;;13.60;65.95
31346;BME280;21711;49.708;18.568;2023-05-11T05:03:08;97453.94;;;13.20;69.71
31346;BME280;21711;49.708;18.568;2023-05-11T05:05:35;97453.16;;;13.38;69.34
31346;BME280;21711;49.708;18.568;2023-05-11T05:08:03;97452.06;;;13.64;68.06
31346;BME280;21711;49.708;18.568;2023-05-11T05:10:30;97462.22;;;14.14;67.88
31346;BME280;21711;49.708;18.568;2023-05-11T05:12:57;97471.00;;;15.69;60.92
31346;BME280;21711;49.708;18.568;2023-05-11T05:15:25;97462.78;;;17.29;55.41
31346;BME280;21711;49.708;18.568;2023-05-11T05:17:52;97473.84;;;17.90;52.53
31346;BME280;21711;49.708;18.568;2023-05-11T05:20:20;97471.78;;;17.78;51.33
31346;BME280;21711;49.708;18.568;2023-05-11T05:22:47;97473.84;;;18.16;50.95
31346;BME280;21711;49.708;18.568;2023-05-11T05:25:15;97471.91;;;16.88;51.30
31346;BME280;21711;49.708;18.568;2023-05-11T05:27:42;97472.59;;;15.70;55.75
31346;BME280;21711;49.708;18.568;2023-05-11T05:30:15;97472.31;;;16.09;54.07
31346;BME280;21711;49.708;18.568;2023-05-11T05:32:43;97472.84;;;17.50;51.14
31346;BME280;21711;49.708;18.568;2023-05-11T05:35:11;97470.97;;;18.04;48.63
31346;BME280;21711;49.708;18.568;2023-05-11T05:37:39;97472.22;;;18.89;46.54
31346;BME280;21711;49.708;18.568;2023-05-11T05:40:07;97474.22;;;18.92;45.12
31346;BME280;21711;49.708;18.568;2023-05-11T05:42:40;97478.38;;;18.24;46.99
31346;BME280;21711;49.708;18.568;2023-05-11T05:45:10;97476.34;;;17.51;48.49
31346;BME280;21711;49.708;18.568;2023-05-11T05:47:40;97469.91;;;17.02;49.36
31346;BME280;21711;49.708;18.568;2023-05-11T05:50:08;97484.84;;;18.80;48.33
31346;BME280;21711;49.708;18.568;2023-05-11T05:52:36;97490.16;;;20.47;42.47
31346;BME280;21711;49.708;18.568;2023-05-11T05:55:04;97479.06;;;19.38;43.16
31346;BME280;21711;49.708;18.568;2023-05-11T05:57:31;97482.41;;;18.57;44.16
31346;BME280;21711;49.708;18.568;2023-05-11T06:00:00;97484.22;;;18.26;46.79
31346;BME280;21711;49.708;18.568;2023-05-11T06:02:28;97483.19;;;19.36;43.82
31346;BME280;21711;49.708;18.568;2023-05-11T06:04:55;97482.66;;;19.12;42.21
31346;BME280;21711;49.708;18.568;2023-05-11T06:07:23;97489.28;;;18.76;44.48
31346;BME280;21711;49.708;18.568;2023-05-11T06:09:50;97486.31;;;19.80;44.15
31346;BME280;21711;49.708;18.568;2023-05-11T06:12:17;97493.34;;;22.47;36.92
31346;BME280;21711;49.708;18.568;2023-05-11T06:14:47;97505.13;;;23.19;34.77
31346;BME280;21711;49.708;18.568;2023-05-11T06:17:14;97499.94;;;24.68;33.19
31346;BME280;21711;49.708;18.568;2023-05-11T06:19:43;97505.59;;;25.60;31.48
31346;BME280;21711;49.708;18.568;2023-05-11T06:22:11;97510.22;;;25.33;31.75
31346;BME280;21711;49.708;18.568;2023-05-11T06:24:38;97504.28;;;24.97;31.04
31346;BME280;21711;49.708;18.568;2023-05-11T06:27:06;97505.53;;;25.30;31.12
31346;BME280;21711;49.708;18.568;2023-05-11T06:29:33;97501.91;;;25.18;31.10
31346;BME280;21711;49.708;18.568;2023-05-11T06:32:02;97505.28;;;25.39;31.41
31346;BME280;21711;49.708;18.568;2023-05-11T06:34:32;97507.72;;;25.74;28.77
31346;BME280;21711;49.708;18.568;2023-05-11T06:37:00;97502.22;;;26.02;29.56
31346;BME280;21711;49.708;18.568;2023-05-11T06:39:27;97508.22;;;26.18;29.87
31346;BME280;21711;49.708;18.568;2023-05-11T06:41:55;97508.06;;;26.83;28.00
31346;BME280;21711;49.708;18.568;2023-05-11T06:44:27;97502.13;;;27.86;26.93
31346;BME280;21711;49.708;18.568;2023-05-11T06:46:56;97514.03;;;27.63;27.74
31346;BME280;21711;49.708;18.568;2023-05-11T06:49:24;97500.00;;;27.54;26.50
31346;BME280;21711;49.708;18.568;2023-05-11T06:51:51;97500.16;;;27.87;25.34
31346;BME280;21711;49.708;18.568;2023-05-11T06:54:21;97509.94;;;28.02;25.12
31346;BME280;21711;49.708;18.568;2023-05-11T06:56:48;97494.53;;;28.65;24.89
31346;BME280;21711;49.708;18.568;2023-05-11T06:59:16;97499.59;;;29.06;24.13
31346;BME280;21711;49.708;18.568;2023-05-11T07:01:43;97514.28;;;29.63;23.39
31346;BME280;21711;49.708;18.568;2023-05-11T07:04:10;97506.13;;;29.45;23.29
31346;BME280;21711;49.708;18.568;2023-05-11T07:06:38;97492.22;;;28.59;23.25
31346;BME280;21711;49.708;18.568;2023-05-11T07:09:05;97501.16;;;29.07;23.36
31346;BME280;21711;49.708;18.568;2023-05-11T07:11:32;97503.06;;;29.29;22.76
31346;BME280;21711;49.708;18.568;2023-05-11T07:14:00;97501.84;;;29.44;22.95
31346;BME280;21711;49.708;18.568;2023-05-11T07:16:27;97497.09;;;29.70;22.99
31346;BME280;21711;49.708;18.568;2023-05-11T07:18:55;97496.59;;;29.97;22.52
31346;BME280;21711;49.708;18.568;2023-05-11T07:21:22;97490.22;;;30.86;22.44
31346;BME280;21711;49.708;18.568;2023-05-11T07:23:49;97491.78;;;32.26;19.41
31346;BME280;21711;49.708;18.568;2023-05-11T07:26:16;97499.53;;;32.00;19.82
31346;BME280;21711;49.708;18.568;2023-05-11T07:28:44;97493.25;;;32.04;20.46
31346;BME280;21711;49.708;18.568;2023-05-11T07:31:11;97496.06;;;33.03;19.14
31346;BME280;21711;49.708;18.568;2023-05-11T07:33:39;97491.78;;;33.02;17.98
31346;BME280;21711;49.708;18.568;2023-05-11T07:36:06;97497.56;;;33.08;17.93
31346;BME280;21711;49.708;18.568;2023-05-11T07:38:34;97488.59;;;31.34;18.33
31346;BME280;21711;49.708;18.568;2023-05-11T07:41:02;97489.53;;;32.73;16.01
31346;BME280;21711;49.708;18.568;2023-05-11T07:43:32;97490.31;;;32.18;15.88
31346;BME280;21711;49.708;18.568;2023-05-11T07:46:00;97478.44;;;30.93;17.89
31346;BME280;21711;49.708;18.568;2023-05-11T07:48:27;97482.97;;;30.04;18.00
31346;BME280;21711;49.708;18.568;2023-05-11T07:50:54;97486.34;;;31.26;17.54
31346;BME280;21711;49.708;18.568;2023-05-11T07:53:22;97491.78;;;30.30;17.10
31346;BME280;21711;49.708;18.568;2023-05-11T07:55:49;97485.13;;;31.65;16.02
31346;BME280;21711;49.708;18.568;2023-05-11T07:58:16;97478.09;;;29.59;17.25
31346;BME280;21711;49.708;18.568;2023-05-11T08:00:43;97478.19;;;29.16;19.03
31346;BME280;21711;49.708;18.568;2023-05-11T08:03:11;97487.03;;;30.42;19.39
31346;BME280;21711;49.708;18.568;2023-05-11T08:05:39;97472.97;;;30.96;18.47
31346;BME280;21711;49.708;18.568;2023-05-11T08:08:06;97484.34;;;31.65;16.87
31346;BME280;21711;49.708;18.568;2023-05-11T08:10:35;97482.16;;;32.42;16.63
31346;BME280;21711;49.708;18.568;2023-05-11T08:13:02;97476.56;;;32.53;16.76
31346;BME280;21711;49.708;18.568;2023-05-11T08:15:29;97480.06;;;31.32;16.96
31346;BME280;21711;49.708;18.568;2023-05-11T08:17:57;97479.25;;;32.01;17.85
31346;BME280;21711;49.708;18.568;2023-05-11T08:20:25;97477.31;;;32.26;17.42
31346;BME280;21711;49.708;18.568;2023-05-11T08:22:52;97468.13;;;30.09;21.92
31346;BME280;21711;49.708;18.568;2023-05-11T08:25:20;97468.72;;;27.82;21.31
31346;BME280;21711;49.708;18.568;2023-05-11T08:27:47;97462.19;;;25.84;24.25
31346;BME280;21711;49.708;18.568;2023-05-11T08:30:14;97473.63;;;30.02;19.63
31346;BME280;21711;49.708;18.568;2023-05-11T08:32:43;97468.81;;;33.40;18.67
31346;BME280;21711;49.708;18.568;2023-05-11T08:35:13;97473.16;;;34.31;17.49
31346;BME280;21711;49.708;18.568;2023-05-11T08:37:41;97469.06;;;32.57;16.87
31346;BME280;21711;49.708;18.568;2023-05-11T08:40:10;97454.00;;;30.33;18.00
31346;BME280;21711;49.708;18.568;2023-05-11T08:42:41;97469.53;;;31.97;18.87
31346;BME280;21711;49.708;18.568;2023-05-11T08:45:12;97463.16;;;32.31;18.14
31346;BME280;21711;49.708;18.568;2023-05-11T08:47:40;97466.56;;;30.68;19.36
31346;BME280;21711;49.708;18.568;2023-05-11T08:50:08;97468.09;;;32.67;17.95
31346;BME280;21711;49.708;18.568;2023-05-11T08:52:35;97460.38;;;33.30;16.92
31346;BME280;21711;49.708;18.568;2023-05-11T08:55:04;97461.09;;;31.84;20.00
31346;BME280;21711;49.708;18.568;2023-05-11T08:57:33;97469.13;;;34.19;17.68
31346;BME280;21711;49.708;18.568;2023-05-11T09:00:02;97462.63;;;34.63;18.03
31346;BME280;21711;49.708;18.568;2023-05-11T09:02:30;97467.84;;;35.50;16.60
31346;BME280;21711;49.708;18.568;2023-05-11T09:04:59;97471.09;;;34.19;15.38
31346;BME280;21711;49.708;18.568;2023-05-11T09:07:30;97463.47;;;34.43;16.57
31346;BME280;21711;49.708;18.568;2023-05-11T09:10:03;97460.53;;;36.12;15.90
31346;BME280;21711;49.708;18.568;2023-05-11T09:12:30;97472.00;;;37.42;14.63
31346;BME280;21711;49.708;18.568;2023-05-11T09:14:57;97460.34;;;35.93;13.86
31346;BME280;21711;49.708;18.568;2023-05-11T09:17:28;97460.44;;;36.02;14.34
31346;BME280;21711;49.708;18.568;2023-05-11T09:19:58;97456.69;;;35.96;16.29
31346;BME280;21711;49.708;18.568;2023-05-11T09:22:26;97454.53;;;35.48;16.05
31346;BME280;21711;49.708;18.568;2023-05-11T09:25:00;97449.09;;;35.02;15.71
31346;BME280;21711;49.708;18.568;2023-05-11T09:27:28;97448.75;;;35.00;17.35
31346;BME280;21711;49.708;18.568;2023-05-11T09:29:55;97447.44;;;33.11;18.10
31346;BME280;21711;49.708;18.568;2023-05-11T09:32:23;97438.41;;;32.66;18.18
31346;BME280;21711;49.708;18.568;2023-05-11T09:34:50;97431.50;;;29.28;21.41
31346;BME280;21711;49.708;18.568;2023-05-11T09:37:18;97430.00;;;29.05;21.63
31346;BME280;21711;49.708;18.568;2023-05-11T09:39:45;97432.56;;;31.19;22.12
31346;BME280;21711;49.708;18.568;2023-05-11T09:42:24;97432.38;;;30.53;22.40
31346;BME280;21711;49.708;18.568;2023-05-11T09:44:51;97430.78;;;28.29;23.44
31346;BME280;21711;49.708;18.568;2023-05-11T09:47:20;97424.13;;;27.94;23.41
31346;BME280;21711;49.708;18.568;2023-05-11T09:49:50;97423.78;;;27.07;24.52
31346;BME280;21711;49.708;18.568;2023-05-11T09:52:18;97426.00;;;26.94;25.20
31346;BME280;21711;49.708;18.568;2023-05-11T09:54:51;97421.91;;;28.40;23.18
31346;BME280;21711;49.708;18.568;2023-05-11T09:57:26;97428.81;;;31.44;20.62
31346;BME280;21711;49.708;18.568;2023-05-11T09:59:58;97423.97;;;32.65;19.40
31346;BME280;21711;49.708;18.568;2023-05-11T10:02:28;97412.50;;;32.50;18.31
31346;BME280;21711;49.708;18.568;2023-05-11T10:04:59;97415.19;;;30.06;21.50
31346;BME280;21711;49.708;18.568;2023-05-11T10:07:29;97417.25;;;29.84;20.90
31346;BME280;21711;49.708;18.568;2023-05-11T10:10:00;97411.28;;;31.72;22.29
31346;BME280;21711;49.708;18.568;2023-05-11T10:12:28;97417.81;;;31.47;21.08
31346;BME280;21711;49.708;18.568;2023-05-11T10:15:06;97404.31;;;30.98;20.85
31346;BME280;21711;49.708;18.568;2023-05-11T10:17:35;97405.41;;;30.62;21.26
31346;BME280;21711;49.708;18.568;2023-05-11T10:20:04;97402.66;;;31.08;21.85
31346;BME280;21711;49.708;18.568;2023-05-11T10:22:33;97404.63;;;31.42;21.90
31346;BME280;21711;49.708;18.568;2023-05-11T10:25:01;97396.09;;;30.06;21.99
31346;BME280;21711;49.708;18.568;2023-05-11T10:27:30;97399.03;;;29.70;21.69
31346;BME280;21711;49.708;18.568;2023-05-11T10:29:58;97399.09;;;31.46;20.55
31346;BME280;21711;49.708;18.568;2023-05-11T10:32:27;97398.28;;;31.18;21.43
31346;BME280;21711;49.708;18.568;2023-05-11T10:34:55;97388.91;;;31.50;19.74
31346;BME280;21711;49.708;18.568;2023-05-11T10:37:23;97396.38;;;32.05;20.02
31346;BME280;21711;49.708;18.568;2023-05-11T10:39:51;97383.56;;;30.66;19.91
31346;BME280;21711;49.708;18.568;2023-05-11T10:46:18;97381.63;;;31.98;21.30
31346;BME280;21711;49.708;18.568;2023-05-11T10:55:14;97358.28;;;26.48;23.30
31346;BME280;21711;49.708;18.568;2023-05-11T10:58:06;97354.56;;;27.53;23.67
31346;BME280;21711;49.708;18.568;2023-05-11T11:03:27;97350.91;;;25.58;25.91
31346;BME280;21711;49.708;18.568;2023-05-11T11:05:55;97354.25;;;26.28;27.01
31346;BME280;21711;49.708;18.568;2023-05-11T11:08:25;97350.72;;;26.79;25.31
31346;BME280;21711;49.708;18.568;2023-05-11T11:10:52;97346.00;;;27.40;24.07
31346;BME280;21711;49.708;18.568;2023-05-11T11:13:19;97351.16;;;28.03;25.07
31346;BME280;21711;49.708;18.568;2023-05-11T11:18:24;97344.81;;;26.63;26.80
31346;BME280;21711;49.708;18.568;2023-05-11T11:20:54;97352.72;;;26.90;26.27
31346;BME280;21711;49.708;18.568;2023-05-11T11:23:40;97348.97;;;27.09;27.56
31346;BME280;21711;49.708;18.568;2023-05-11T11:26:10;97349.97;;;26.83;25.57
31346;BME280;21711;49.708;18.568;2023-05-11T11:31:32;97338.28;;;26.71;25.24
31346;BME280;21711;49.708;18.568;2023-05-11T11:42:11;97326.38;;;23.82;27.26
31346;BME280;21711;49.708;18.568;2023-05-11T11:44:41;97340.47;;;24.41;28.72
31346;BME280;21711;49.708;18.568;2023-05-11T11:47:19;97331.38;;;24.53;28.77
31346;BME280;21711;49.708;18.568;2023-05-11T11:49:54;97334.66;;;24.66;26.17
31346;BME280;21711;49.708;18.568;2023-05-11T11:55:01;97326.91;;;24.65;27.69
31346;BME280;21711;49.708;18.568;2023-05-11T12:00:00;97322.44;;;24.49;26.49
31346;BME280;21711;49.708;18.568;2023-05-11T12:02:27;97321.34;;;24.27;27.23
31346;BME280;21711;49.708;18.568;2023-05-11T12:05:16;97321.91;;;23.70;27.20
31346;BME280;21711;49.708;18.568;2023-05-11T12:07:52;97330.63;;;23.83;29.52
31346;BME280;21711;49.708;18.568;2023-05-11T12:10:21;97321.25;;;23.76;28.13
31346;BME280;21711;49.708;18.568;2023-05-11T12:12:50;97313.03;;;22.90;30.38
31346;BME280;21711;49.708;18.568;2023-05-11T12:15:26;97308.25;;;22.83;30.66
31346;BME280;21711;49.708;18.568;2023-05-11T12:17:54;97318.88;;;23.51;30.83
31346;BME280;21711;49.708;18.568;2023-05-11T12:20:22;97310.94;;;23.39;31.13
31346;BME280;21711;49.708;18.568;2023-05-11T12:22:50;97306.97;;;23.33;28.95
31346;BME280;21711;49.708;18.568;2023-05-11T12:25:19;97306.03;;;23.25;30.61
31346;BME280;21711;49.708;18.568;2023-05-11T12:27:56;97306.31;;;23.00;30.32
31346;BME280;21711;49.708;18.568;2023-05-11T12:30:31;97303.16;;;23.34;30.62
31346;BME280;21711;49.708;18.568;2023-05-11T12:33:00;97288.06;;;22.93;31.05
31346;BME280;21711;49.708;18.568;2023-05-11T12:35:33;97297.84;;;22.46;32.07
31346;BME280;21711;49.708;18.568;2023-05-11T12:38:00;97297.22;;;23.08;30.11
31346;BME280;21711;49.708;18.568;2023-05-11T12:40:30;97301.91;;;23.51;29.74
31346;BME280;21711;49.708;18.568;2023-05-11T12:42:58;97303.72;;;23.67;30.97
31346;BME280;21711;49.708;18.568;2023-05-11T12:45:27;97292.16;;;23.89;31.79
31346;BME280;21711;49.708;18.568;2023-05-11T12:47:55;97304.41;;;24.07;29.83
31346;BME280;21711;49.708;18.568;2023-05-11T12:50:24;97300.56;;;23.84;31.36
31346;BME280;21711;49.708;18.568;2023-05-11T12:52:51;97284.47;;;23.91;29.85
31346;BME280;21711;49.708;18.568;2023-05-11T12:55:29;97297.78;;;23.81;30.61
31346;BME280;21711;49.708;18.568;2023-05-11T12:58:14;97286.28;;;23.21;31.98
31346;BME280;21711;49.708;18.568;2023-05-11T13:00:58;97278.72;;;23.07;32.08
31346;BME280;21711;49.708;18.568;2023-05-11T13:03:31;97267.34;;;22.78;32.33
31346;BME280;21711;49.708;18.568;2023-05-11T13:06:11;97265.66;;;22.89;33.62
31346;BME280;21711;49.708;18.568;2023-05-11T13:08:43;97264.72;;;22.62;33.80
31346;BME280;21711;49.708;18.568;2023-05-11T13:11:24;97265.50;;;22.82;32.91
31346;BME280;21711;49.708;18.568;2023-05-11T13:13:55;97262.75;;;22.98;33.26
31346;BME280;21711;49.708;18.568;2023-05-11T13:16:31;97260.50;;;22.28;33.71
31346;BME280;21711;49.708;18.568;2023-05-11T13:19:05;97259.44;;;22.69;32.67
31346;BME280;21711;49.708;18.568;2023-05-11T13:21:34;97254.28;;;22.80;33.32
31346;BME280;21711;49.708;18.568;2023-05-11T13:24:02;97255.50;;;23.42;32.76
31346;BME280;21711;49.708;18.568;2023-05-11T13:26:31;97262.50;;;23.27;31.52
31346;BME280;21711;49.708;18.568;2023-05-11T13:28:58;97244.44;;;22.88;32.17
31346;BME280;21711;49.708;18.568;2023-05-11T13:31:48;97250.34;;;22.05;32.26
31346;BME280;21711;49.708;18.568;2023-05-11T13:34:17;97243.94;;;21.94;33.52
31346;BME280;21711;49.708;18.568;2023-05-11T13:36:45;97240.25;;;22.18;35.60
31346;BME280;21711;49.708;18.568;2023-05-11T13:39:13;97246.78;;;22.17;34.84
31346;BME280;21711;49.708;18.568;2023-05-11T13:41:40;97237.78;;;21.77;32.56
31346;BME280;21711;49.708;18.568;2023-05-11T13:44:07;97233.88;;;21.75;35.15
31346;BME280;21711;49.708;18.568;2023-05-11T13:46:35;97239.41;;;22.14;32.96